Time;durP1;ratioP1;P1;durP2;ratioP2;P2;SDS_P1;SDS_P2;PMS_P1;PMS_P2;Temp;Humidity;BMP_temperature;BMP_pressure;BME280_temperature;BME280_humidity;BME280_pressure;Samples;Min_cycle;Max_cycle;Signal;HPM_P1;HPM_P2
2023/05/12 00:01:55;;;;;;;8.90;3.85;;;13.60;78.40;;;;;;5050851;28;20131;-81
2023/05/12 00:04:22;;;;;;;7.50;3.80;;;13.60;78.60;;;;;;5043722;28;20049;-80
2023/05/12 00:06:49;;;;;;;8.27;3.60;;;13.60;78.60;;;;;;5035506;28;20283;-81
2023/05/12 00:09:16;;;;;;;8.35;4.18;;;13.60;78.80;;;;;;5047631;28;20053;-81
2023/05/12 00:11:43;;;;;;;7.43;3.80;;;13.60;78.80;;;;;;5049643;28;20053;-81
2023/05/12 00:14:11;;;;;;;8.45;4.47;;;13.60;78.90;;;;;;5046846;28;20060;-81
2023/05/12 00:16:38;;;;;;;9.20;4.53;;;13.60;78.90;;;;;;5044322;28;20063;-81
2023/05/12 00:19:06;;;;;;;8.73;4.30;;;13.60;79.20;;;;;;5046479;28;20302;-81
2023/05/12 00:21:33;;;;;;;9.63;4.40;;;13.60;79.20;;;;;;5050729;28;20064;-81
2023/05/12 00:24:00;;;;;;;10.65;4.40;;;13.50;79.20;;;;;;5021892;28;20069;-81
2023/05/12 00:26:27;;;;;;;9.70;4.30;;;13.50;79.40;;;;;;5064754;28;20053;-81
2023/05/12 00:28:55;;;;;;;10.03;4.90;;;13.50;79.30;;;;;;5059555;28;20444;-81
2023/05/12 00:31:23;;;;;;;9.60;4.82;;;13.50;79.20;;;;;;5041762;28;20397;-81
2023/05/12 00:33:50;;;;;;;8.52;4.70;;;13.50;79.60;;;;;;5049048;28;20506;-80
2023/05/12 00:36:18;;;;;;;9.32;5.10;;;13.50;79.60;;;;;;5046061;28;20053;-81
2023/05/12 00:38:45;;;;;;;11.90;5.55;;;13.50;79.60;;;;;;5032880;28;20657;-80
2023/05/12 00:41:14;;;;;;;10.47;5.27;;;13.50;79.70;;;;;;5034734;28;20092;-81
2023/05/12 00:43:41;;;;;;;10.43;5.65;;;13.50;79.80;;;;;;5045251;28;20820;-81
2023/05/12 00:46:09;;;;;;;11.95;6.40;;;13.50;80.00;;;;;;5033577;28;20100;-80
2023/05/12 00:48:37;;;;;;;11.73;6.00;;;13.50;80.00;;;;;;5045803;28;20131;-80
2023/05/12 00:51:05;;;;;;;12.65;6.32;;;13.50;80.10;;;;;;5028048;28;20045;-80
2023/05/12 00:53:32;;;;;;;13.33;6.60;;;13.40;80.20;;;;;;5032505;28;20052;-81
2023/05/12 00:55:59;;;;;;;15.45;7.40;;;13.40;80.20;;;;;;5030730;28;20368;-80
2023/05/12 00:58:27;;;;;;;14.45;7.15;;;13.40;80.30;;;;;;5043051;28;20049;-81
2023/05/12 01:00:55;;;;;;;14.48;7.47;;;13.40;80.40;;;;;;5031556;28;20059;-80
2023/05/12 01:03:22;;;;;;;15.00;7.78;;;13.40;80.30;;;;;;5036890;28;20119;-81
2023/05/12 01:05:56;;;;;;;15.07;7.87;;;13.40;80.30;;;;;;5030639;28;20056;-81
2023/05/12 01:08:24;;;;;;;17.58;8.52;;;13.40;80.50;;;;;;5047251;28;20252;-81
2023/05/12 01:10:52;;;;;;;18.45;9.00;;;13.40;80.50;;;;;;5047966;28;20522;-80
2023/05/12 01:13:20;;;;;;;19.27;9.70;;;13.40;80.60;;;;;;5029079;28;20056;-81
2023/05/12 01:15:49;;;;;;;18.65;9.52;;;13.40;80.60;;;;;;5032138;28;20052;-80
2023/05/12 01:18:21;;;;;;;19.83;9.43;;;13.40;80.60;;;;;;5033662;28;20148;-80
2023/05/12 01:20:49;;;;;;;17.88;9.27;;;13.40;80.70;;;;;;5030080;28;20292;-80
2023/05/12 01:23:19;;;;;;;20.15;10.43;;;13.40;80.50;;;;;;5041047;28;20076;-80
2023/05/12 01:25:50;;;;;;;21.98;10.80;;;13.40;80.70;;;;;;5033140;28;20057;-80
2023/05/12 01:28:19;;;;;;;21.45;10.85;;;13.40;80.70;;;;;;5030121;28;20050;-80
2023/05/12 01:30:47;;;;;;;22.03;9.63;;;13.40;80.70;;;;;;5031334;28;20075;-80
2023/05/12 01:33:14;;;;;;;22.30;11.40;;;13.40;80.60;;;;;;5048340;28;20338;-80
2023/05/12 01:35:41;;;;;;;24.83;11.63;;;13.40;80.80;;;;;;5046021;28;20050;-80
2023/05/12 01:38:08;;;;;;;25.30;12.40;;;13.40;80.70;;;;;;5028834;28;20045;-80
2023/05/12 01:40:39;;;;;;;25.13;12.00;;;13.40;80.90;;;;;;5025487;28;20059;-80
2023/05/12 01:43:06;;;;;;;24.27;11.50;;;13.40;80.80;;;;;;5032250;28;20168;-80
2023/05/12 01:45:35;;;;;;;25.23;12.40;;;13.30;80.90;;;;;;5032529;28;20263;-80
2023/05/12 01:48:02;;;;;;;28.50;12.55;;;13.40;80.80;;;;;;5050175;28;20068;-80
2023/05/12 01:50:30;;;;;;;24.95;12.43;;;13.40;81.10;;;;;;5034741;28;20144;-80
2023/05/12 01:52:58;;;;;;;25.27;12.77;;;13.30;81.00;;;;;;5024475;28;20045;-80
2023/05/12 01:55:25;;;;;;;26.57;12.73;;;13.30;80.70;;;;;;5021180;28;20061;-80
2023/05/12 01:57:57;;;;;;;23.67;11.50;;;13.40;81.10;;;;;;5022753;28;20766;-80
2023/05/12 02:00:24;;;;;;;26.25;11.93;;;13.30;81.10;;;;;;5019468;28;20353;-80
2023/05/12 02:02:55;;;;;;;27.58;13.70;;;13.40;80.90;;;;;;5025938;28;20208;-80
2023/05/12 02:05:22;;;;;;;27.65;12.88;;;13.30;81.10;;;;;;5031983;28;20060;-80
2023/05/12 02:07:51;;;;;;;25.83;12.73;;;13.30;81.10;;;;;;5038777;28;20483;-80
2023/05/12 02:10:18;;;;;;;32.78;13.63;;;13.30;81.10;;;;;;5030692;28;20279;-79
2023/05/12 02:12:45;;;;;;;28.65;13.75;;;13.30;81.00;;;;;;5028583;28;20056;-80
2023/05/12 02:15:12;;;;;;;28.92;13.50;;;13.30;81.20;;;;;;5037858;28;20104;-80
2023/05/12 02:17:43;;;;;;;27.55;12.82;;;13.30;81.20;;;;;;5030594;28;20052;-80
2023/05/12 02:20:12;;;;;;;29.10;13.40;;;13.40;81.40;;;;;;5050581;28;20064;-80
2023/05/12 02:22:39;;;;;;;24.13;12.68;;;13.30;81.40;;;;;;5026656;28;20768;-80
2023/05/12 02:25:07;;;;;;;30.70;13.77;;;13.30;81.50;;;;;;5031083;28;20633;-80
2023/05/12 02:27:34;;;;;;;31.83;14.55;;;13.40;81.30;;;;;;5047134;28;20143;-80
2023/05/12 02:30:02;;;;;;;30.27;14.43;;;13.40;81.50;;;;;;5036294;28;20209;-80
2023/05/12 02:32:31;;;;;;;27.83;13.20;;;13.30;81.50;;;;;;5029086;28;20049;-80
2023/05/12 02:34:58;;;;;;;29.63;14.00;;;13.40;81.40;;;;;;5033796;28;20721;-80
2023/05/12 02:37:27;;;;;;;27.38;14.15;;;13.30;81.50;;;;;;5024964;28;20128;-80
2023/05/12 02:39:54;;;;;;;28.52;14.40;;;13.40;81.80;;;;;;5040618;28;20156;-80
2023/05/12 02:42:21;;;;;;;28.95;14.88;;;13.40;81.90;;;;;;5043151;28;20628;-80
2023/05/12 02:44:48;;;;;;;30.83;14.30;;;13.40;82.00;;;;;;5033520;28;20155;-80
2023/05/12 02:47:15;;;;;;;28.75;14.20;;;13.40;82.00;;;;;;5025012;28;20387;-80
2023/05/12 02:49:42;;;;;;;30.17;14.95;;;13.40;82.10;;;;;;5029890;28;20608;-80
2023/05/12 02:52:09;;;;;;;31.25;14.50;;;13.40;82.40;;;;;;5044879;28;20057;-80
2023/05/12 02:54:37;;;;;;;31.95;14.65;;;13.30;82.40;;;;;;5033291;28;20506;-80
2023/05/12 02:57:05;;;;;;;29.47;14.30;;;13.40;82.40;;;;;;5024600;28;20389;-80
2023/05/12 02:59:32;;;;;;;29.42;14.38;;;13.30;82.30;;;;;;5048026;28;20285;-80
2023/05/12 03:01:59;;;;;;;29.05;14.38;;;13.40;82.20;;;;;;5043640;28;20103;-79
2023/05/12 03:04:27;;;;;;;30.77;14.27;;;13.40;82.20;;;;;;5021526;28;20113;-79
2023/05/12 03:06:54;;;;;;;31.88;15.07;;;13.40;82.20;;;;;;5027395;28;20051;-80
2023/05/12 03:09:21;;;;;;;29.40;13.77;;;13.40;82.20;;;;;;5027031;28;20138;-80
2023/05/12 03:11:49;;;;;;;30.42;14.63;;;13.40;82.50;;;;;;5034612;28;20244;-80
2023/05/12 03:14:16;;;;;;;30.45;15.05;;;13.40;82.50;;;;;;5044754;28;20941;-79
2023/05/12 03:16:43;;;;;;;32.03;15.35;;;13.40;82.60;;;;;;5035000;28;20052;-79
2023/05/12 03:19:10;;;;;;;33.53;16.02;;;13.40;82.60;;;;;;5023963;28;20050;-80
2023/05/12 03:21:37;;;;;;;30.50;15.80;;;13.40;82.80;;;;;;5022674;28;20127;-79
2023/05/12 03:24:05;;;;;;;31.70;14.43;;;13.40;82.60;;;;;;5030195;28;20344;-79
2023/05/12 03:26:33;;;;;;;31.55;14.48;;;13.40;82.70;;;;;;5026525;28;20049;-80
2023/05/12 03:29:02;;;;;;;32.97;15.85;;;13.40;82.80;;;;;;5027678;28;20053;-79
2023/05/12 03:31:30;;;;;;;32.17;15.27;;;13.40;82.80;;;;;;5038775;28;20052;-80
2023/05/12 03:33:57;;;;;;;36.10;16.50;;;13.50;82.80;;;;;;5031279;28;20503;-79
2023/05/12 03:36:24;;;;;;;32.80;15.00;;;13.40;83.00;;;;;;5015753;28;20742;-79
2023/05/12 03:38:51;;;;;;;38.17;17.30;;;13.40;83.20;;;;;;5028868;28;20049;-80
2023/05/12 03:41:18;;;;;;;32.88;15.90;;;13.50;83.10;;;;;;5032585;28;20045;-79
2023/05/12 03:43:45;;;;;;;38.40;16.88;;;13.50;83.20;;;;;;5032070;28;20191;-80
2023/05/12 03:46:13;;;;;;;34.07;16.40;;;13.40;83.30;;;;;;5033653;28;20136;-80
2023/05/12 03:48:40;;;;;;;33.88;16.23;;;13.40;83.30;;;;;;5031378;28;20318;-79
2023/05/12 03:51:07;;;;;;;35.33;16.92;;;13.40;83.30;;;;;;5049899;28;20336;-80
2023/05/12 03:53:34;;;;;;;32.92;15.27;;;13.40;83.20;;;;;;5034357;28;20144;-79
2023/05/12 03:56:05;;;;;;;39.05;17.45;;;13.40;83.30;;;;;;5049305;28;20055;-80
2023/05/12 03:58:33;;;;;;;36.33;16.70;;;13.40;83.20;;;;;;5033769;28;20419;-80
2023/05/12 04:01:00;;;;;;;32.83;16.25;;;13.40;83.20;;;;;;5034313;28;20255;-80
2023/05/12 04:03:29;;;;;;;32.83;15.60;;;13.40;83.20;;;;;;5033465;28;20045;-79
2023/05/12 04:06:00;;;;;;;35.33;16.65;;;13.40;83.40;;;;;;5045150;28;20057;-80
2023/05/12 04:08:27;;;;;;;34.03;16.33;;;13.40;83.30;;;;;;5068456;28;20219;-80
2023/05/12 04:10:56;;;;;;;34.20;15.30;;;13.40;83.20;;;;;;5028741;28;20045;-79
2023/05/12 04:13:23;;;;;;;33.65;15.63;;;13.40;83.30;;;;;;5032168;28;20333;-79
2023/05/12 04:15:51;;;;;;;37.03;16.33;;;13.40;83.30;;;;;;5028642;28;20800;-79
2023/05/12 04:18:18;;;;;;;31.13;15.35;;;13.40;83.30;;;;;;5034481;28;20052;-80
2023/05/12 04:20:46;;;;;;;32.03;16.35;;;13.40;83.30;;;;;;5027506;28;20483;-80
2023/05/12 04:23:14;;;;;;;32.77;15.67;;;13.50;83.20;;;;;;5030955;28;20488;-80
2023/05/12 04:25:42;;;;;;;36.90;16.73;;;13.50;83.30;;;;;;5044149;28;20249;-80
2023/05/12 04:28:10;;;;;;;32.25;16.08;;;13.50;83.60;;;;;;5047003;28;20056;-80
2023/05/12 04:30:39;;;;;;;35.75;17.27;;;13.50;83.70;;;;;;5026963;28;20091;-79
2023/05/12 04:33:06;;;;;;;33.53;16.60;;;13.50;83.70;;;;;;5042128;28;20557;-79
2023/05/12 04:35:34;;;;;;;36.77;17.67;;;13.50;83.70;;;;;;5033930;28;20146;-80
2023/05/12 04:38:03;;;;;;;36.28;16.83;;;13.50;83.80;;;;;;5033786;28;20283;-80
2023/05/12 04:40:30;;;;;;;36.75;17.35;;;13.50;83.80;;;;;;5029359;28;20056;-80
2023/05/12 04:42:57;;;;;;;35.80;16.20;;;13.50;83.80;;;;;;5033854;28;20483;-79
2023/05/12 04:45:26;;;;;;;37.42;18.15;;;13.50;83.90;;;;;;5029432;28;20413;-80
2023/05/12 04:47:53;;;;;;;34.23;16.43;;;13.50;83.90;;;;;;5032779;28;20053;-80
2023/05/12 04:50:21;;;;;;;31.83;16.58;;;13.50;83.90;;;;;;5020011;28;20288;-80
2023/05/12 04:52:48;;;;;;;34.08;16.90;;;13.50;84.00;;;;;;5030352;28;20057;-80
2023/05/12 04:55:16;;;;;;;33.35;16.45;;;13.50;84.00;;;;;;5030362;28;20080;-80
2023/05/12 04:57:43;;;;;;;31.25;15.65;;;13.50;84.30;;;;;;5018566;28;20053;-80
2023/05/12 05:00:12;;;;;;;32.67;15.00;;;13.50;84.10;;;;;;5046203;28;20056;-80
2023/05/12 05:02:40;;;;;;;33.47;15.90;;;13.50;84.30;;;;;;5033459;28;20248;-80
2023/05/12 05:05:07;;;;;;;31.40;16.30;;;13.50;84.20;;;;;;5020785;28;20124;-80
2023/05/12 05:07:35;;;;;;;32.58;15.68;;;13.50;84.20;;;;;;5013999;28;20045;-80
2023/05/12 05:10:02;;;;;;;32.45;15.80;;;13.50;84.00;;;;;;5014080;28;20053;-80
2023/05/12 05:12:31;;;;;;;30.40;15.33;;;13.50;84.00;;;;;;5013324;28;20056;-80
2023/05/12 05:14:58;;;;;;;31.25;15.52;;;13.50;84.20;;;;;;5029928;28;20419;-80
2023/05/12 05:17:25;;;;;;;31.67;15.80;;;13.50;84.00;;;;;;5013160;28;20053;-79
2023/05/12 05:19:52;;;;;;;29.38;15.20;;;13.50;84.10;;;;;;5013610;28;20079;-80
2023/05/12 05:22:20;;;;;;;30.02;15.13;;;13.60;84.30;;;;;;5015137;28;20093;-79
2023/05/12 05:24:47;;;;;;;34.60;16.23;;;13.60;84.30;;;;;;5052471;28;20073;-79
2023/05/12 05:27:15;;;;;;;33.13;15.77;;;13.60;84.30;;;;;;5033750;28;20275;-79
2023/05/12 05:29:43;;;;;;;32.47;15.73;;;13.60;84.30;;;;;;5039953;28;20048;-80
2023/05/12 05:32:10;;;;;;;32.30;15.68;;;13.60;84.40;;;;;;5047029;28;20055;-79
2023/05/12 05:34:38;;;;;;;31.88;15.88;;;13.60;84.20;;;;;;5039784;28;20049;-80
2023/05/12 05:37:05;;;;;;;31.87;15.97;;;13.60;84.30;;;;;;5026624;28;20119;-80
2023/05/12 05:39:32;;;;;;;33.10;15.93;;;13.60;84.30;;;;;;5036021;28;20336;-80
2023/05/12 05:41:59;;;;;;;34.15;15.75;;;13.60;84.30;;;;;;5019624;28;20128;-80
2023/05/12 05:44:26;;;;;;;35.05;16.88;;;13.60;84.40;;;;;;5036219;28;20053;-80
2023/05/12 05:46:56;;;;;;;32.53;15.95;;;13.60;84.40;;;;;;5030590;28;20059;-80
2023/05/12 05:49:25;;;;;;;32.80;15.60;;;13.60;84.40;;;;;;5035468;28;20192;-80
2023/05/12 05:51:53;;;;;;;31.65;15.63;;;13.60;84.40;;;;;;5032165;28;20270;-80
2023/05/12 05:54:22;;;;;;;32.65;16.67;;;13.70;84.30;;;;;;5046567;28;20046;-80
2023/05/12 05:56:49;;;;;;;32.00;15.77;;;13.70;84.40;;;;;;5029038;28;20049;-81
2023/05/12 05:59:16;;;;;;;30.63;15.40;;;13.70;84.50;;;;;;5023903;28;20079;-80
2023/05/12 06:01:44;;;;;;;33.07;15.63;;;13.70;84.40;;;;;;5034935;28;20044;-80
2023/05/12 06:04:12;;;;;;;30.27;15.13;;;13.70;84.40;;;;;;5032224;28;20257;-80
2023/05/12 06:06:42;;;;;;;33.40;15.93;;;13.70;84.60;;;;;;5045145;28;20136;-80
2023/05/12 06:09:11;;;;;;;36.05;16.50;;;13.70;84.50;;;;;;5047689;28;20140;-80
2023/05/12 06:11:38;;;;;;;33.22;14.98;;;13.70;84.40;;;;;;5033963;28;20048;-80
2023/05/12 06:14:05;;;;;;;30.53;16.23;;;13.70;84.30;;;;;;5022336;28;20412;-81
2023/05/12 06:16:32;;;;;;;34.17;16.15;;;13.70;84.60;;;;;;5029839;28;20274;-80
2023/05/12 06:18:59;;;;;;;30.58;16.00;;;13.70;84.50;;;;;;5068490;28;20143;-81
2023/05/12 06:21:27;;;;;;;34.05;15.48;;;13.70;84.60;;;;;;5034787;28;20060;-80
2023/05/12 06:23:55;;;;;;;33.70;16.13;;;13.70;84.70;;;;;;5034553;28;20145;-80
2023/05/12 06:26:22;;;;;;;31.60;15.30;;;13.70;84.70;;;;;;5048823;28;20054;-80
2023/05/12 06:28:50;;;;;;;33.13;16.85;;;13.80;84.70;;;;;;5037641;28;20356;-80
2023/05/12 06:31:17;;;;;;;32.33;15.82;;;13.80;84.70;;;;;;5046768;28;20057;-80
2023/05/12 06:33:43;;;;;;;31.65;16.33;;;13.80;84.70;;;;;;5029862;28;20426;-80
2023/05/12 06:36:12;;;;;;;30.23;16.00;;;13.80;84.80;;;;;;5040416;28;20053;-80
2023/05/12 06:38:41;;;;;;;33.67;16.70;;;13.80;84.80;;;;;;5035028;28;20975;-80
2023/05/12 06:41:07;;;;;;;35.25;16.30;;;13.90;85.00;;;;;;5037443;28;20360;-80
2023/05/12 06:43:34;;;;;;;31.17;15.30;;;13.90;85.00;;;;;;5031222;28;20080;-80
2023/05/12 06:46:03;;;;;;;31.33;15.70;;;13.90;85.10;;;;;;5040881;28;20053;-80
2023/05/12 06:48:30;;;;;;;34.70;16.27;;;13.90;85.10;;;;;;5047469;28;20076;-80
2023/05/12 06:50:57;;;;;;;32.17;16.80;;;13.90;85.20;;;;;;5028079;28;20131;-80
2023/05/12 06:53:29;;;;;;;29.55;15.15;;;13.90;85.10;;;;;;5022043;28;20251;-80
2023/05/12 06:55:57;;;;;;;31.70;15.48;;;13.90;85.10;;;;;;5032890;28;20080;-80
2023/05/12 06:58:24;;;;;;;31.67;16.23;;;13.90;85.00;;;;;;5024093;28;20099;-80
2023/05/12 07:00:52;;;;;;;31.70;15.85;;;13.90;84.80;;;;;;5038513;28;20080;-80
2023/05/12 07:03:19;;;;;;;32.37;16.00;;;13.90;85.00;;;;;;5041154;28;20132;-80
2023/05/12 07:05:46;;;;;;;33.45;15.55;;;13.90;85.00;;;;;;5063835;28;20765;-80
2023/05/12 07:08:12;;;;;;;32.95;16.50;;;13.90;85.10;;;;;;5040798;28;20136;-80
2023/05/12 07:10:39;;;;;;;35.00;16.45;;;13.90;85.10;;;;;;5035289;28;20853;-80
2023/05/12 07:13:08;;;;;;;32.67;16.05;;;13.90;85.20;;;;;;5023820;28;20081;-80
2023/05/12 07:15:36;;;;;;;37.17;17.23;;;14.00;85.30;;;;;;5029020;28;20087;-80
2023/05/12 07:18:03;;;;;;;36.92;18.05;;;14.00;85.40;;;;;;5034305;28;20600;-80
2023/05/12 07:20:30;;;;;;;36.92;17.00;;;14.00;85.30;;;;;;5057953;28;20051;-80
2023/05/12 07:22:57;;;;;;;33.80;16.90;;;14.00;85.40;;;;;;5043034;28;20536;-80
2023/05/12 07:25:24;;;;;;;33.50;17.10;;;14.00;85.50;;;;;;5041335;28;20834;-80
2023/05/12 07:27:51;;;;;;;38.23;17.50;;;14.00;85.50;;;;;;5033824;28;20049;-80
2023/05/12 07:30:21;;;;;;;33.45;17.77;;;14.10;85.50;;;;;;5042573;28;20745;-80
2023/05/12 07:32:48;;;;;;;35.92;17.42;;;14.10;85.60;;;;;;5049617;28;20049;-80
2023/05/12 07:35:15;;;;;;;37.28;18.05;;;14.10;85.70;;;;;;5046874;28;20040;-80
2023/05/12 07:37:41;;;;;;;34.50;16.65;;;14.10;85.60;;;;;;5063801;28;20064;-80
2023/05/12 07:40:09;;;;;;;36.23;17.37;;;14.10;85.60;;;;;;5019962;28;20046;-80
2023/05/12 07:42:36;;;;;;;35.42;17.45;;;14.10;85.60;;;;;;5042321;28;20371;-80
2023/05/12 07:45:03;;;;;;;34.25;16.85;;;14.10;85.60;;;;;;5046052;28;20088;-80
2023/05/12 07:47:31;;;;;;;35.70;17.98;;;14.20;85.50;;;;;;5041974;28;20095;-80
2023/05/12 07:49:58;;;;;;;35.88;18.10;;;14.20;85.60;;;;;;5056598;28;20059;-80
2023/05/12 07:52:25;;;;;;;40.80;18.40;;;14.20;85.80;;;;;;5048420;28;20053;-80
2023/05/12 07:54:52;;;;;;;32.78;17.05;;;14.20;85.90;;;;;;5033752;28;20375;-81
2023/05/12 07:57:19;;;;;;;33.35;17.33;;;14.30;85.90;;;;;;5059240;28;20605;-80
2023/05/12 07:59:47;;;;;;;32.80;16.70;;;14.30;86.10;;;;;;5044254;28;20059;-81
2023/05/12 08:02:15;;;;;;;33.63;16.75;;;14.30;86.00;;;;;;5049525;28;20471;-80
2023/05/12 08:04:44;;;;;;;32.80;17.23;;;14.30;86.00;;;;;;5034350;28;20050;-80
2023/05/12 08:07:11;;;;;;;31.00;15.65;;;14.40;86.10;;;;;;5041912;28;20749;-80
2023/05/12 08:09:38;;;;;;;31.73;16.70;;;14.40;86.10;;;;;;5047301;28;20053;-81
2023/05/12 08:12:05;;;;;;;30.23;14.98;;;14.40;86.10;;;;;;5046144;28;20057;-81
2023/05/12 08:14:32;;;;;;;29.92;15.75;;;14.50;86.20;;;;;;5035774;28;20073;-81
2023/05/12 08:16:59;;;;;;;28.33;16.20;;;14.50;86.30;;;;;;5044485;28;20057;-81
2023/05/12 08:19:26;;;;;;;31.33;16.17;;;14.50;86.30;;;;;;5038299;28;20337;-80
2023/05/12 08:21:54;;;;;;;30.60;15.70;;;14.50;86.10;;;;;;5043382;28;20496;-81
2023/05/12 08:24:21;;;;;;;29.98;16.13;;;14.60;86.00;;;;;;5043698;28;20049;-81
2023/05/12 08:26:48;;;;;;;27.10;14.63;;;14.60;86.10;;;;;;5042200;28;20518;-80
2023/05/12 08:29:15;;;;;;;27.83;15.53;;;14.60;86.10;;;;;;5049772;28;20678;-81
2023/05/12 08:31:42;;;;;;;24.88;14.35;;;14.60;86.10;;;;;;5069040;28;20271;-82
2023/05/12 08:34:10;;;;;;;28.40;15.57;;;14.70;86.00;;;;;;5045458;28;20049;-82
2023/05/12 08:36:38;;;;;;;31.00;16.23;;;14.70;86.00;;;;;;5042367;28;20064;-83
2023/05/12 08:39:08;;;;;;;25.75;14.15;;;14.70;86.20;;;;;;5027116;28;20136;-82
2023/05/12 08:41:42;;;;;;;25.73;15.37;;;14.70;86.30;;;;;;5037900;28;20060;-83
2023/05/12 08:44:11;;;;;;;27.85;15.70;;;14.80;86.40;;;;;;5041087;28;20284;-83
2023/05/12 08:46:39;;;;;;;25.40;14.50;;;14.80;86.10;;;;;;5050520;28;20081;-82
2023/05/12 08:49:10;;;;;;;27.73;15.00;;;14.90;86.10;;;;;;5041206;28;20063;-82
2023/05/12 08:51:40;;;;;;;25.65;14.25;;;14.90;86.10;;;;;;5019371;28;20119;-83
2023/05/12 08:54:12;;;;;;;26.97;14.50;;;14.90;86.20;;;;;;5045655;28;20622;-83
2023/05/12 08:56:40;;;;;;;25.73;15.30;;;14.90;86.10;;;;;;5040282;28;20303;-83
2023/05/12 08:59:09;;;;;;;25.15;14.80;;;15.00;86.20;;;;;;5022571;28;20049;-81
2023/05/12 09:01:36;;;;;;;27.40;14.93;;;15.00;86.20;;;;;;5038363;28;20045;-81
2023/05/12 09:04:06;;;;;;;25.10;14.73;;;15.00;86.00;;;;;;5047784;28;20056;-80
2023/05/12 09:06:33;;;;;;;26.63;15.10;;;15.00;86.10;;;;;;5049356;28;20533;-81
2023/05/12 09:09:00;;;;;;;25.08;14.98;;;15.10;85.90;;;;;;5043304;28;20709;-81
2023/05/12 09:11:29;;;;;;;26.00;15.63;;;15.20;86.00;;;;;;5046765;28;20053;-81
2023/05/12 09:14:01;;;;;;;24.42;14.77;;;15.20;86.00;;;;;;5023083;28;20131;-82
2023/05/12 09:16:31;;;;;;;23.63;14.52;;;15.20;86.10;;;;;;5065239;28;20136;-82
2023/05/12 09:19:00;;;;;;;25.50;15.00;;;15.30;86.20;;;;;;5042830;28;20049;-81
2023/05/12 09:21:28;;;;;;;25.42;14.90;;;15.30;86.40;;;;;;5039818;28;20287;-82
2023/05/12 09:23:57;;;;;;;24.15;14.18;;;15.40;86.50;;;;;;5043942;28;20140;-81
2023/05/12 09:26:24;;;;;;;22.10;14.10;;;15.50;86.50;;;;;;5042357;28;20061;-82
2023/05/12 09:28:55;;;;;;;25.00;14.85;;;15.50;86.50;;;;;;5036806;28;20049;-82
2023/05/12 09:31:23;;;;;;;24.30;14.57;;;15.60;86.60;;;;;;5045527;28;20045;-81
2023/05/12 09:33:51;;;;;;;25.33;15.10;;;15.60;86.70;;;;;;5036525;28;20295;-80
2023/05/12 09:36:19;;;;;;;22.30;13.70;;;15.60;86.70;;;;;;5040045;28;20063;-81
2023/05/12 09:38:46;;;;;;;22.98;13.68;;;15.80;86.60;;;;;;5036823;28;20051;-81
2023/05/12 09:41:12;;;;;;;23.48;14.35;;;15.80;86.60;;;;;;5035482;28;20476;-81
2023/05/12 09:43:45;;;;;;;22.27;14.67;;;15.80;86.60;;;;;;5055959;28;20048;-81
2023/05/12 09:46:14;;;;;;;19.90;12.85;;;15.90;86.70;;;;;;5035717;28;20277;-81
2023/05/12 09:48:41;;;;;;;20.15;12.60;;;16.00;86.20;;;;;;5058917;28;20053;-81
2023/05/12 09:51:10;;;;;;;21.27;12.88;;;16.00;86.00;;;;;;5046657;28;20059;-81
2023/05/12 09:53:43;;;;;;;17.98;11.32;;;16.00;86.10;;;;;;5042256;28;20581;-80
2023/05/12 09:56:12;;;;;;;17.33;11.57;;;16.10;86.10;;;;;;5032110;28;20057;-81
2023/05/12 09:58:42;;;;;;;18.98;12.55;;;16.20;86.10;;;;;;5028754;28;20249;-81
2023/05/12 10:01:12;;;;;;;19.00;11.90;;;16.20;85.90;;;;;;5049712;28;20084;-81
2023/05/12 10:03:41;;;;;;;15.70;10.52;;;16.30;85.80;;;;;;5044951;28;20530;-81
2023/05/12 10:06:13;;;;;;;17.30;11.13;;;16.40;85.80;;;;;;5041868;28;20046;-82
2023/05/12 10:08:44;;;;;;;17.23;11.00;;;16.40;85.80;;;;;;5042672;28;20073;-81
2023/05/12 10:11:12;;;;;;;14.68;9.30;;;16.50;86.00;;;;;;5051098;28;20814;-81
2023/05/12 10:13:39;;;;;;;13.65;8.98;;;16.60;86.20;;;;;;5049045;28;20092;-81
2023/05/12 10:16:07;;;;;;;14.50;10.07;;;16.70;86.00;;;;;;5052935;28;20053;-81
2023/05/12 10:18:34;;;;;;;15.77;10.70;;;16.80;85.50;;;;;;5062153;28;20054;-81
2023/05/12 10:21:03;;;;;;;13.63;8.93;;;16.80;85.50;;;;;;5032734;28;20148;-81
2023/05/12 10:23:32;;;;;;;9.10;6.32;;;16.90;85.40;;;;;;5047332;28;20280;-81
2023/05/12 10:26:02;;;;;;;9.57;6.43;;;17.00;85.30;;;;;;5044203;28;20132;-80
2023/05/12 10:28:29;;;;;;;9.35;6.60;;;17.10;84.90;;;;;;5046558;28;20049;-80
2023/05/12 10:30:57;;;;;;;8.38;6.07;;;17.20;84.50;;;;;;5035761;28;20065;-81
2023/05/12 10:33:24;;;;;;;9.47;6.67;;;17.20;84.20;;;;;;5047555;28;20060;-81
2023/05/12 10:35:52;;;;;;;10.27;6.57;;;17.40;83.80;;;;;;5052869;28;20830;-81
2023/05/12 10:38:21;;;;;;;9.65;6.05;;;17.50;83.60;;;;;;5053020;28;20179;-81
2023/05/12 10:40:56;;;;;;;9.90;6.88;;;17.50;83.60;;;;;;5051368;28;20049;-80
2023/05/12 10:43:25;;;;;;;8.00;5.43;;;17.60;83.50;;;;;;5052413;28;20044;-81
2023/05/12 10:46:08;;;;;;;7.50;4.80;;;17.70;83.60;;;;;;5064349;28;20064;-81
2023/05/12 10:48:35;;;;;;;8.95;5.72;;;17.80;83.30;;;;;;5059960;28;20626;-81
2023/05/12 10:51:07;;;;;;;10.25;6.88;;;17.90;82.70;;;;;;5038971;28;20055;-81
2023/05/12 10:53:36;;;;;;;8.75;6.15;;;18.00;82.40;;;;;;5035348;28;20343;-81
2023/05/12 10:56:07;;;;;;;9.95;5.95;;;18.10;82.10;;;;;;5044762;28;20080;-81
2023/05/12 10:58:34;;;;;;;8.60;6.53;;;18.20;81.80;;;;;;5069941;28;20572;-81
2023/05/12 11:01:06;;;;;;;10.57;6.50;;;18.30;81.70;;;;;;5044924;28;20280;-80
2023/05/12 11:03:34;;;;;;;8.38;5.95;;;18.30;81.30;;;;;;5051932;28;20138;-81
2023/05/12 11:06:02;;;;;;;7.65;6.00;;;18.40;81.00;;;;;;5051677;28;20276;-80
2023/05/12 11:08:29;;;;;;;10.13;6.25;;;18.50;80.90;;;;;;5045820;28;20050;-81
2023/05/12 11:10:58;;;;;;;10.57;6.97;;;18.60;80.90;;;;;;5049562;28;20503;-81
2023/05/12 11:13:25;;;;;;;9.73;6.75;;;18.60;80.70;;;;;;5051756;28;20765;-81
2023/05/12 11:15:53;;;;;;;9.05;6.30;;;18.70;80.10;;;;;;5051322;28;20052;-81
2023/05/12 11:18:21;;;;;;;8.32;6.03;;;18.80;79.80;;;;;;5051272;28;20056;-81
2023/05/12 11:20:48;;;;;;;8.70;6.80;;;18.90;79.60;;;;;;5051144;28;20123;-81
2023/05/12 11:23:27;;;;;;;9.03;6.77;;;19.00;79.70;;;;;;5042591;28;20053;-81
2023/05/12 11:25:54;;;;;;;11.68;7.65;;;19.00;78.60;;;;;;5047127;28;20715;-81
2023/05/12 11:28:22;;;;;;;9.55;7.28;;;19.10;78.10;;;;;;5045172;28;20055;-81
2023/05/12 11:30:54;;;;;;;12.40;8.63;;;19.20;77.60;;;;;;5051334;28;20546;-80
2023/05/12 11:33:21;;;;;;;10.40;7.97;;;19.30;77.70;;;;;;5068712;28;20066;-81
2023/05/12 11:35:49;;;;;;;11.37;8.40;;;19.30;77.50;;;;;;5042690;28;20068;-81
2023/05/12 11:38:17;;;;;;;10.40;7.82;;;19.50;77.30;;;;;;5048678;28;20284;-80
2023/05/12 11:40:44;;;;;;;11.93;8.82;;;19.50;77.00;;;;;;5055827;28;20046;-81
2023/05/12 11:43:13;;;;;;;12.48;9.15;;;19.60;76.70;;;;;;5032070;28;20491;-81
2023/05/12 11:45:41;;;;;;;12.52;8.27;;;19.70;76.00;;;;;;5036185;28;20060;-81
2023/05/12 11:48:10;;;;;;;9.67;7.27;;;19.70;75.40;;;;;;5067137;28;20051;-81
2023/05/12 11:50:39;;;;;;;10.77;8.60;;;19.80;75.10;;;;;;5051083;28;20879;-81
2023/05/12 11:53:11;;;;;;;11.00;8.57;;;19.90;74.70;;;;;;5049653;28;20040;-81
2023/05/12 11:55:38;;;;;;;11.32;8.73;;;20.00;74.40;;;;;;5042569;28;20123;-81
2023/05/12 11:58:05;;;;;;;12.57;9.45;;;20.00;74.10;;;;;;5050932;28;20556;-81
2023/05/12 12:00:33;;;;;;;11.90;9.70;;;20.10;74.20;;;;;;5050731;28;20049;-81
2023/05/12 12:03:11;;;;;;;14.88;9.93;;;20.20;73.90;;;;;;5034517;28;20276;-81
2023/05/12 12:05:38;;;;;;;12.55;8.52;;;20.30;73.80;;;;;;5050416;28;20052;-81
2023/05/12 12:08:07;;;;;;;11.05;8.25;;;20.30;73.60;;;;;;5030967;28;20133;-81
2023/05/12 12:10:35;;;;;;;11.68;7.72;;;20.50;73.20;;;;;;5050063;28;20049;-81
2023/05/12 12:13:04;;;;;;;9.90;6.43;;;20.50;72.80;;;;;;5045805;28;20056;-81
2023/05/12 12:15:31;;;;;;;8.68;5.80;;;20.60;72.60;;;;;;5049612;28;20585;-81
2023/05/12 12:17:58;;;;;;;7.35;5.57;;;20.70;72.50;;;;;;5047543;28;20132;-81
2023/05/12 12:20:26;;;;;;;7.57;5.30;;;20.80;72.30;;;;;;5046945;28;20051;-81
2023/05/12 12:22:53;;;;;;;8.88;5.38;;;20.80;71.20;;;;;;5047964;28;20051;-81
2023/05/12 12:25:21;;;;;;;7.80;5.57;;;20.90;70.90;;;;;;5031050;28;20503;-80
2023/05/12 12:27:48;;;;;;;8.98;5.50;;;21.00;70.10;;;;;;5046782;28;20385;-81
2023/05/12 12:30:16;;;;;;;9.20;6.18;;;21.10;69.70;;;;;;5048149;28;20047;-81
2023/05/12 12:32:44;;;;;;;6.80;5.18;;;21.10;70.00;;;;;;5049555;28;20173;-81
2023/05/12 12:35:12;;;;;;;6.15;4.10;;;21.30;69.30;;;;;;5063345;28;20073;-81